Terminal Aerodrome Forecast
Issued by NWS

Home | Current Version | Previous Version | Text Only | Print | Product List | Glossary On
Versions: 1 2 3 4 5 6 7 8 9 10 11 12 13
000
FTUS45 KABQ 161700
TAFGUP
TAF
KGUP 161735Z 1618/1718 06007KT P6SM SCT070 BKN140
     FM162000 14008KT P6SM VCSH SCT070 BKN130
     FM162200 16008KT P6SM VCTS BKN070CB BKN100
     FM170300 VRB06KT P6SM VCSH BKN050 BKN090
     FM170800 VRB06KT P6SM SCT025 BKN050
      TEMPO 1709/1713 BKN025=

USA.gov is the U.S. government's official web portal to all federal, state and local government web resources and services.